sensor_id;sensor_type;location;lat;lon;timestamp;temperature;humidity
24017;DHT22;12222;50.090;19.702;2022-07-23T00:04:46;18.50;99.90
24017;DHT22;12222;50.090;19.702;2022-07-23T00:10:07;18.40;99.90
24017;DHT22;12222;50.090;19.702;2022-07-23T00:15:28;18.10;99.90
24017;DHT22;12222;50.090;19.702;2022-07-23T00:20:49;18.20;99.90
24017;DHT22;12222;50.090;19.702;2022-07-23T00:26:10;18.30;99.90
24017;DHT22;12222;50.090;19.702;2022-07-23T00:31:31;18.10;99.90
24017;DHT22;12222;50.090;19.702;2022-07-23T00:36:52;18.10;99.90
24017;DHT22;12222;50.090;19.702;2022-07-23T00:42:14;18.00;99.90
24017;DHT22;12222;50.090;19.702;2022-07-23T00:47:35;18.00;99.90
24017;DHT22;12222;50.090;19.702;2022-07-23T00:52:56;18.00;99.90
24017;DHT22;12222;50.090;19.702;2022-07-23T00:58:17;18.00;99.90
24017;DHT22;12222;50.090;19.702;2022-07-23T01:03:38;18.00;99.90
24017;DHT22;12222;50.090;19.702;2022-07-23T01:09:02;18.00;99.90
24017;DHT22;12222;50.090;19.702;2022-07-23T01:14:23;17.90;99.90
24017;DHT22;12222;50.090;19.702;2022-07-23T01:19:44;17.70;99.90
24017;DHT22;12222;50.090;19.702;2022-07-23T01:25:05;17.80;99.90
24017;DHT22;12222;50.090;19.702;2022-07-23T01:30:26;17.50;99.90
24017;DHT22;12222;50.090;19.702;2022-07-23T01:35:48;17.60;99.90
24017;DHT22;12222;50.090;19.702;2022-07-23T01:41:14;17.40;99.90
24017;DHT22;12222;50.090;19.702;2022-07-23T01:46:36;17.40;99.90
24017;DHT22;12222;50.090;19.702;2022-07-23T01:51:58;17.40;99.90
24017;DHT22;12222;50.090;19.702;2022-07-23T01:57:28;17.50;99.90
24017;DHT22;12222;50.090;19.702;2022-07-23T02:02:49;17.60;99.90
24017;DHT22;12222;50.090;19.702;2022-07-23T02:08:10;17.60;99.90
24017;DHT22;12222;50.090;19.702;2022-07-23T02:13:30;17.40;99.90
24017;DHT22;12222;50.090;19.702;2022-07-23T02:18:53;17.40;99.90
24017;DHT22;12222;50.090;19.702;2022-07-23T02:24:14;17.40;99.90
24017;DHT22;12222;50.090;19.702;2022-07-23T02:29:35;17.30;99.90
24017;DHT22;12222;50.090;19.702;2022-07-23T02:34:56;17.50;99.90
24017;DHT22;12222;50.090;19.702;2022-07-23T02:40:17;17.40;99.90
24017;DHT22;12222;50.090;19.702;2022-07-23T02:45:38;17.30;99.90
24017;DHT22;12222;50.090;19.702;2022-07-23T02:50:58;17.10;99.90
24017;DHT22;12222;50.090;19.702;2022-07-23T02:56:25;17.10;99.90
24017;DHT22;12222;50.090;19.702;2022-07-23T03:01:46;17.20;99.90
24017;DHT22;12222;50.090;19.702;2022-07-23T03:07:06;17.00;99.90
24017;DHT22;12222;50.090;19.702;2022-07-23T03:12:28;17.10;99.90
24017;DHT22;12222;50.090;19.702;2022-07-23T03:17:48;17.10;99.90
24017;DHT22;12222;50.090;19.702;2022-07-23T03:23:08;17.20;99.90
24017;DHT22;12222;50.090;19.702;2022-07-23T03:28:30;17.00;99.90
24017;DHT22;12222;50.090;19.702;2022-07-23T03:33:51;17.00;99.90
24017;DHT22;12222;50.090;19.702;2022-07-23T03:39:11;17.00;99.90
24017;DHT22;12222;50.090;19.702;2022-07-23T03:44:34;17.10;99.90
24017;DHT22;12222;50.090;19.702;2022-07-23T03:49:55;17.30;99.90
24017;DHT22;12222;50.090;19.702;2022-07-23T03:55:16;17.50;99.90
24017;DHT22;12222;50.090;19.702;2022-07-23T04:00:36;17.70;99.90
24017;DHT22;12222;50.090;19.702;2022-07-23T04:05:58;17.80;99.90
24017;DHT22;12222;50.090;19.702;2022-07-23T04:11:22;18.10;99.90
24017;DHT22;12222;50.090;19.702;2022-07-23T04:16:42;18.60;99.90
24017;DHT22;12222;50.090;19.702;2022-07-23T04:22:03;18.90;99.90
24017;DHT22;12222;50.090;19.702;2022-07-23T04:27:26;19.20;99.90
24017;DHT22;12222;50.090;19.702;2022-07-23T04:32:47;19.50;99.90
24017;DHT22;12222;50.090;19.702;2022-07-23T04:38:19;19.80;99.90
24017;DHT22;12222;50.090;19.702;2022-07-23T04:43:43;20.10;99.90
24017;DHT22;12222;50.090;19.702;2022-07-23T04:49:05;20.50;99.90
24017;DHT22;12222;50.090;19.702;2022-07-23T04:54:27;21.50;99.90
24017;DHT22;12222;50.090;19.702;2022-07-23T04:59:49;25.20;99.90
24017;DHT22;12222;50.090;19.702;2022-07-23T05:05:10;26.10;99.90
24017;DHT22;12222;50.090;19.702;2022-07-23T05:10:30;27.20;99.90
24017;DHT22;12222;50.090;19.702;2022-07-23T05:15:51;28.60;99.90
24017;DHT22;12222;50.090;19.702;2022-07-23T05:21:12;28.50;99.90
24017;DHT22;12222;50.090;19.702;2022-07-23T05:26:33;28.80;99.90
24017;DHT22;12222;50.090;19.702;2022-07-23T05:31:54;29.60;99.90
24017;DHT22;12222;50.090;19.702;2022-07-23T05:37:17;28.70;99.50
24017;DHT22;12222;50.090;19.702;2022-07-23T05:42:39;28.10;99.90
24017;DHT22;12222;50.090;19.702;2022-07-23T05:48:00;27.10;99.90
24017;DHT22;12222;50.090;19.702;2022-07-23T05:53:28;26.70;99.90
24017;DHT22;12222;50.090;19.702;2022-07-23T05:58:58;26.60;99.90
24017;DHT22;12222;50.090;19.702;2022-07-23T06:04:20;25.70;99.90
24017;DHT22;12222;50.090;19.702;2022-07-23T06:09:54;25.30;99.90
24017;DHT22;12222;50.090;19.702;2022-07-23T06:15:15;25.00;99.90
24017;DHT22;12222;50.090;19.702;2022-07-23T06:20:36;25.00;99.90
24017;DHT22;12222;50.090;19.702;2022-07-23T06:25:56;25.50;99.90
24017;DHT22;12222;50.090;19.702;2022-07-23T06:31:17;26.00;99.90
24017;DHT22;12222;50.090;19.702;2022-07-23T06:36:39;27.90;99.90
24017;DHT22;12222;50.090;19.702;2022-07-23T06:42:02;30.20;99.50
24017;DHT22;12222;50.090;19.702;2022-07-23T06:47:31;29.70;96.50
24017;DHT22;12222;50.090;19.702;2022-07-23T06:52:54;28.00;99.90
24017;DHT22;12222;50.090;19.702;2022-07-23T06:58:14;27.40;99.90
24017;DHT22;12222;50.090;19.702;2022-07-23T07:03:36;27.00;99.90
24017;DHT22;12222;50.090;19.702;2022-07-23T07:08:57;26.70;99.90
24017;DHT22;12222;50.090;19.702;2022-07-23T07:14:18;26.90;99.90
24017;DHT22;12222;50.090;19.702;2022-07-23T07:19:39;27.00;99.90
24017;DHT22;12222;50.090;19.702;2022-07-23T07:24:59;26.90;99.90
24017;DHT22;12222;50.090;19.702;2022-07-23T07:30:20;26.90;99.90
24017;DHT22;12222;50.090;19.702;2022-07-23T07:35:41;26.90;99.90
24017;DHT22;12222;50.090;19.702;2022-07-23T07:41:01;27.30;99.90
24017;DHT22;12222;50.090;19.702;2022-07-23T07:46:22;27.60;99.90
24017;DHT22;12222;50.090;19.702;2022-07-23T07:51:45;27.90;99.90
24017;DHT22;12222;50.090;19.702;2022-07-23T07:57:06;28.10;99.90
24017;DHT22;12222;50.090;19.702;2022-07-23T08:02:27;28.70;97.90
24017;DHT22;12222;50.090;19.702;2022-07-23T08:07:48;28.90;98.60
24017;DHT22;12222;50.090;19.702;2022-07-23T08:13:13;28.80;98.80
24017;DHT22;12222;50.090;19.702;2022-07-23T08:18:34;30.70;92.40
24017;DHT22;12222;50.090;19.702;2022-07-23T08:23:54;32.60;86.70
24017;DHT22;12222;50.090;19.702;2022-07-23T08:29:15;33.00;77.80
24017;DHT22;12222;50.090;19.702;2022-07-23T08:34:35;35.30;73.30
24017;DHT22;12222;50.090;19.702;2022-07-23T08:40:02;35.50;71.60
24017;DHT22;12222;50.090;19.702;2022-07-23T08:45:24;35.40;69.40
24017;DHT22;12222;50.090;19.702;2022-07-23T08:50:47;35.80;68.30
24017;DHT22;12222;50.090;19.702;2022-07-23T08:56:08;34.90;69.60
24017;DHT22;12222;50.090;19.702;2022-07-23T09:01:29;36.20;66.90
24017;DHT22;12222;50.090;19.702;2022-07-23T09:06:50;35.20;68.60
24017;DHT22;12222;50.090;19.702;2022-07-23T09:12:11;37.00;66.10
24017;DHT22;12222;50.090;19.702;2022-07-23T09:17:40;36.90;65.90
24017;DHT22;12222;50.090;19.702;2022-07-23T09:23:02;39.00;62.20
24017;DHT22;12222;50.090;19.702;2022-07-23T09:28:32;38.50;61.20
24017;DHT22;12222;50.090;19.702;2022-07-23T09:34:09;36.40;60.80
24017;DHT22;12222;50.090;19.702;2022-07-23T09:39:32;34.90;64.80
24017;DHT22;12222;50.090;19.702;2022-07-23T09:44:55;34.60;61.20
24017;DHT22;12222;50.090;19.702;2022-07-23T09:50:19;33.90;60.90
24017;DHT22;12222;50.090;19.702;2022-07-23T09:55:46;34.20;60.10
24017;DHT22;12222;50.090;19.702;2022-07-23T10:01:06;33.50;59.60
24017;DHT22;12222;50.090;19.702;2022-07-23T10:06:27;33.90;65.30
24017;DHT22;12222;50.090;19.702;2022-07-23T10:12:12;33.40;64.90
24017;DHT22;12222;50.090;19.702;2022-07-23T10:17:48;34.10;65.00
24017;DHT22;12222;50.090;19.702;2022-07-23T10:23:24;34.20;61.60
24017;DHT22;12222;50.090;19.702;2022-07-23T10:34:40;33.30;63.50
24017;DHT22;12222;50.090;19.702;2022-07-23T10:40:19;33.70;65.00
24017;DHT22;12222;50.090;19.702;2022-07-23T10:45:41;33.40;65.20
24017;DHT22;12222;50.090;19.702;2022-07-23T10:51:05;33.70;61.20
24017;DHT22;12222;50.090;19.702;2022-07-23T11:02:23;34.10;59.60
24017;DHT22;12222;50.090;19.702;2022-07-23T11:24:14;35.00;59.30
24017;DHT22;12222;50.090;19.702;2022-07-23T11:34:56;33.80;64.50
24017;DHT22;12222;50.090;19.702;2022-07-23T11:40:17;33.60;61.00
24017;DHT22;12222;50.090;19.702;2022-07-23T11:45:42;33.70;62.70
24017;DHT22;12222;50.090;19.702;2022-07-23T11:51:04;33.70;60.90
24017;DHT22;12222;50.090;19.702;2022-07-23T11:56:24;33.40;62.50
24017;DHT22;12222;50.090;19.702;2022-07-23T12:02:03;34.30;62.10
24017;DHT22;12222;50.090;19.702;2022-07-23T12:07:45;34.40;59.70
24017;DHT22;12222;50.090;19.702;2022-07-23T12:13:12;34.50;59.40
24017;DHT22;12222;50.090;19.702;2022-07-23T12:18:34;35.00;57.30
24017;DHT22;12222;50.090;19.702;2022-07-23T12:24:06;35.20;58.70
24017;DHT22;12222;50.090;19.702;2022-07-23T12:29:34;34.80;58.70
24017;DHT22;12222;50.090;19.702;2022-07-23T12:35:06;33.50;60.90
24017;DHT22;12222;50.090;19.702;2022-07-23T12:40:30;33.10;62.80
24017;DHT22;12222;50.090;19.702;2022-07-23T12:45:54;34.00;62.70
24017;DHT22;12222;50.090;19.702;2022-07-23T12:51:20;34.30;62.30
24017;DHT22;12222;50.090;19.702;2022-07-23T12:56:44;34.20;61.00
24017;DHT22;12222;50.090;19.702;2022-07-23T13:02:08;33.90;61.90
24017;DHT22;12222;50.090;19.702;2022-07-23T13:07:30;33.30;64.10
24017;DHT22;12222;50.090;19.702;2022-07-23T13:12:53;32.90;64.30
24017;DHT22;12222;50.090;19.702;2022-07-23T13:18:14;32.40;66.10
24017;DHT22;12222;50.090;19.702;2022-07-23T13:23:35;32.90;64.30
24017;DHT22;12222;50.090;19.702;2022-07-23T13:28:55;32.90;63.10
24017;DHT22;12222;50.090;19.702;2022-07-23T13:34:16;33.00;63.90
24017;DHT22;12222;50.090;19.702;2022-07-23T13:39:37;32.30;64.10
24017;DHT22;12222;50.090;19.702;2022-07-23T13:44:58;31.80;64.50
24017;DHT22;12222;50.090;19.702;2022-07-23T13:50:19;32.20;66.40
24017;DHT22;12222;50.090;19.702;2022-07-23T13:55:42;31.80;63.70
24017;DHT22;12222;50.090;19.702;2022-07-23T14:01:08;31.60;66.30
24017;DHT22;12222;50.090;19.702;2022-07-23T14:06:29;31.00;67.50
24017;DHT22;12222;50.090;19.702;2022-07-23T14:11:53;30.50;68.30
24017;DHT22;12222;50.090;19.702;2022-07-23T14:17:13;30.30;69.70
24017;DHT22;12222;50.090;19.702;2022-07-23T14:22:34;30.00;70.60
24017;DHT22;12222;50.090;19.702;2022-07-23T14:27:55;29.70;71.60
24017;DHT22;12222;50.090;19.702;2022-07-23T14:33:15;29.30;72.40
24017;DHT22;12222;50.090;19.702;2022-07-23T14:38:36;29.10;73.60
24017;DHT22;12222;50.090;19.702;2022-07-23T14:43:57;29.00;74.80
24017;DHT22;12222;50.090;19.702;2022-07-23T14:49:17;29.00;76.60
24017;DHT22;12222;50.090;19.702;2022-07-23T14:54:38;28.90;73.40
24017;DHT22;12222;50.090;19.702;2022-07-23T14:59:59;28.10;75.20
24017;DHT22;12222;50.090;19.702;2022-07-23T15:05:20;26.60;77.20
24017;DHT22;12222;50.090;19.702;2022-07-23T15:10:41;25.70;83.70
24017;DHT22;12222;50.090;19.702;2022-07-23T15:16:02;23.80;99.90
24017;DHT22;12222;50.090;19.702;2022-07-23T15:21:26;23.10;99.90
24017;DHT22;12222;50.090;19.702;2022-07-23T15:26:50;22.00;99.90
24017;DHT22;12222;50.090;19.702;2022-07-23T15:32:10;21.90;99.90
24017;DHT22;12222;50.090;19.702;2022-07-23T15:37:33;21.30;99.90
24017;DHT22;12222;50.090;19.702;2022-07-23T15:42:54;21.20;99.90
24017;DHT22;12222;50.090;19.702;2022-07-23T15:48:14;21.20;99.90
24017;DHT22;12222;50.090;19.702;2022-07-23T15:53:35;21.30;99.90
24017;DHT22;12222;50.090;19.702;2022-07-23T15:58:56;21.60;99.90
24017;DHT22;12222;50.090;19.702;2022-07-23T16:04:17;21.80;99.90
24017;DHT22;12222;50.090;19.702;2022-07-23T16:09:37;21.60;99.90
24017;DHT22;12222;50.090;19.702;2022-07-23T16:14:57;20.70;99.90
24017;DHT22;12222;50.090;19.702;2022-07-23T16:20:26;20.80;99.90
24017;DHT22;12222;50.090;19.702;2022-07-23T16:25:46;21.00;99.90
24017;DHT22;12222;50.090;19.702;2022-07-23T16:31:07;21.40;99.90
24017;DHT22;12222;50.090;19.702;2022-07-23T16:36:28;21.70;99.90
24017;DHT22;12222;50.090;19.702;2022-07-23T16:41:48;22.00;99.90
24017;DHT22;12222;50.090;19.702;2022-07-23T16:47:09;22.00;99.90
24017;DHT22;12222;50.090;19.702;2022-07-23T16:52:30;22.20;99.90
24017;DHT22;12222;50.090;19.702;2022-07-23T16:57:50;22.30;99.90
24017;DHT22;12222;50.090;19.702;2022-07-23T17:03:11;22.70;99.90
24017;DHT22;12222;50.090;19.702;2022-07-23T17:08:31;22.70;99.90
24017;DHT22;12222;50.090;19.702;2022-07-23T17:13:52;22.40;99.90
24017;DHT22;12222;50.090;19.702;2022-07-23T17:19:12;22.40;99.90
24017;DHT22;12222;50.090;19.702;2022-07-23T17:24:33;22.20;99.90
24017;DHT22;12222;50.090;19.702;2022-07-23T17:29:54;22.10;99.90
24017;DHT22;12222;50.090;19.702;2022-07-23T17:35:15;21.80;99.90
24017;DHT22;12222;50.090;19.702;2022-07-23T17:40:35;21.70;99.90
24017;DHT22;12222;50.090;19.702;2022-07-23T17:45:56;21.80;99.90
24017;DHT22;12222;50.090;19.702;2022-07-23T17:51:18;21.60;99.90
24017;DHT22;12222;50.090;19.702;2022-07-23T17:56:39;21.50;99.90
24017;DHT22;12222;50.090;19.702;2022-07-23T18:01:59;21.60;99.90
24017;DHT22;12222;50.090;19.702;2022-07-23T18:07:20;21.60;99.90
24017;DHT22;12222;50.090;19.702;2022-07-23T18:12:41;21.70;99.90
24017;DHT22;12222;50.090;19.702;2022-07-23T18:18:01;21.70;99.90
24017;DHT22;12222;50.090;19.702;2022-07-23T20:24:54;19.70;99.90
24017;DHT22;12222;50.090;19.702;2022-07-23T20:30:14;19.70;99.90
24017;DHT22;12222;50.090;19.702;2022-07-23T20:35:35;19.60;99.90
24017;DHT22;12222;50.090;19.702;2022-07-23T20:40:56;19.60;99.90
24017;DHT22;12222;50.090;19.702;2022-07-23T20:46:17;19.60;99.90
24017;DHT22;12222;50.090;19.702;2022-07-23T20:51:39;19.50;99.90
24017;DHT22;12222;50.090;19.702;2022-07-23T20:56:59;19.30;99.90
24017;DHT22;12222;50.090;19.702;2022-07-23T21:02:20;19.40;99.90
24017;DHT22;12222;50.090;19.702;2022-07-23T21:07:41;19.30;99.90
24017;DHT22;12222;50.090;19.702;2022-07-23T21:13:04;19.30;99.90
24017;DHT22;12222;50.090;19.702;2022-07-23T21:18:24;19.40;99.90
24017;DHT22;12222;50.090;19.702;2022-07-23T21:23:49;19.50;99.90
24017;DHT22;12222;50.090;19.702;2022-07-23T21:29:12;19.50;99.90
24017;DHT22;12222;50.090;19.702;2022-07-23T21:34:33;19.50;99.90
24017;DHT22;12222;50.090;19.702;2022-07-23T21:39:53;19.60;99.90
24017;DHT22;12222;50.090;19.702;2022-07-23T21:45:14;19.60;99.90
24017;DHT22;12222;50.090;19.702;2022-07-23T21:50:36;19.60;99.90
24017;DHT22;12222;50.090;19.702;2022-07-23T21:55:59;19.70;99.90
24017;DHT22;12222;50.090;19.702;2022-07-23T22:01:19;19.70;99.90
24017;DHT22;12222;50.090;19.702;2022-07-23T22:06:41;19.70;99.90
24017;DHT22;12222;50.090;19.702;2022-07-23T22:12:02;19.60;99.90
24017;DHT22;12222;50.090;19.702;2022-07-23T22:17:23;19.50;99.90
24017;DHT22;12222;50.090;19.702;2022-07-23T22:22:46;19.60;99.90
24017;DHT22;12222;50.090;19.702;2022-07-23T22:28:06;19.60;99.90
24017;DHT22;12222;50.090;19.702;2022-07-23T22:33:27;19.70;99.90
24017;DHT22;12222;50.090;19.702;2022-07-23T22:38:48;19.70;99.90
24017;DHT22;12222;50.090;19.702;2022-07-23T22:44:08;19.50;99.90
24017;DHT22;12222;50.090;19.702;2022-07-23T22:49:29;19.60;99.90
24017;DHT22;12222;50.090;19.702;2022-07-23T22:54:50;19.70;99.90
24017;DHT22;12222;50.090;19.702;2022-07-23T23:00:12;19.70;99.90
24017;DHT22;12222;50.090;19.702;2022-07-23T23:05:39;19.90;99.90
24017;DHT22;12222;50.090;19.702;2022-07-23T23:10:59;19.80;99.90
24017;DHT22;12222;50.090;19.702;2022-07-23T23:16:20;19.80;99.90
24017;DHT22;12222;50.090;19.702;2022-07-23T23:21:40;19.80;99.90
24017;DHT22;12222;50.090;19.702;2022-07-23T23:27:01;19.70;99.90
24017;DHT22;12222;50.090;19.702;2022-07-23T23:32:21;19.70;99.90
24017;DHT22;12222;50.090;19.702;2022-07-23T23:37:42;19.70;99.90
24017;DHT22;12222;50.090;19.702;2022-07-23T23:43:02;19.70;99.90
24017;DHT22;12222;50.090;19.702;2022-07-23T23:48:23;19.70;99.90
24017;DHT22;12222;50.090;19.702;2022-07-23T23:53:43;19.80;99.90
24017;DHT22;12222;50.090;19.702;2022-07-23T23:59:04;19.70;99.90
